createdAt,value
2023-04-02T00:04:39.094Z,51.79
2023-04-02T00:09:36.368Z,51.64
2023-04-02T00:14:50.595Z,51.68
2023-04-02T00:20:00.397Z,52.02
2023-04-02T00:24:55.960Z,51.88
2023-04-02T00:30:13.160Z,51.72
2023-04-02T00:35:13.913Z,51.73
2023-04-02T00:40:17.807Z,51.82
2023-04-02T00:45:33.868Z,52.10
2023-04-02T00:50:41.765Z,51.78
2023-04-02T00:55:41.653Z,51.60
2023-04-02T01:00:37.717Z,51.95
2023-04-02T01:05:35.737Z,51.73
2023-04-02T01:10:31.877Z,51.80
2023-04-02T01:15:49.465Z,51.69
2023-04-02T01:21:08.179Z,52.06
2023-04-02T01:26:13.775Z,51.90
2023-04-02T01:31:07.969Z,52.32
2023-04-02T01:36:12.512Z,52.04
2023-04-02T01:41:18.637Z,52.77
2023-04-02T01:46:32.965Z,52.94
2023-04-02T01:51:54.008Z,53.25
2023-04-02T01:56:48.502Z,53.33
2023-04-02T02:02:03.021Z,53.23
2023-04-02T02:07:00.876Z,53.43
2023-04-02T02:11:55.065Z,53.71
2023-04-02T02:16:49.371Z,52.97
2023-04-02T02:21:45.248Z,53.22
2023-04-02T02:26:39.944Z,52.82
2023-04-02T02:31:35.515Z,52.40
2023-04-02T02:36:38.632Z,52.16
2023-04-02T02:41:40.630Z,52.03
2023-04-02T02:46:36.024Z,51.90
2023-04-02T02:52:00.185Z,51.84
2023-04-02T02:57:09.385Z,51.71
2023-04-02T03:02:03.878Z,51.62
2023-04-02T03:06:59.344Z,51.66
2023-04-02T03:11:52.751Z,51.94
2023-04-02T03:16:55.122Z,51.79
2023-04-02T03:22:05.694Z,51.38
2023-04-02T03:27:19.476Z,51.70
2023-04-02T03:32:24.565Z,51.41
2023-04-02T03:37:23.958Z,51.45
2023-04-02T03:42:22.662Z,51.43
2023-04-02T03:47:25.090Z,51.46
2023-04-02T03:52:27.386Z,51.36
2023-04-02T03:57:25.543Z,51.48
2023-04-02T04:02:44.519Z,51.30
2023-04-02T04:07:41.919Z,51.04
2023-04-02T04:12:42.688Z,51.17
2023-04-02T04:18:20.043Z,50.95
2023-04-02T04:23:37.090Z,50.85
2023-04-02T04:28:56.795Z,50.91
2023-04-02T04:33:55.790Z,51.11
2023-04-02T04:38:55.768Z,50.80
2023-04-02T04:43:54.923Z,50.81
2023-04-02T04:48:53.939Z,50.92
2023-04-02T04:53:51.415Z,50.71
2023-04-02T04:58:53.066Z,50.56
2023-04-02T05:04:03.270Z,50.41
2023-04-02T05:09:04.126Z,50.68
2023-04-02T05:14:27.909Z,50.52
2023-04-02T05:19:49.494Z,50.53
2023-04-02T05:24:55.570Z,50.45
2023-04-02T05:30:01.091Z,50.91
2023-04-02T05:34:57.926Z,50.55
2023-04-02T05:39:58.093Z,48.31
2023-04-02T05:45:18.269Z,45.73
2023-04-02T05:50:33.811Z,43.64
2023-04-02T05:56:18.416Z,42.50
2023-04-02T06:01:42.519Z,43.39
2023-04-02T06:06:55.284Z,46.53
2023-04-02T06:11:54.521Z,46.49
2023-04-02T06:16:47.936Z,46.06
2023-04-02T06:21:50.044Z,47.11
2023-04-02T06:26:55.210Z,47.17
2023-04-02T06:31:52.313Z,46.48
2023-04-02T06:36:49.105Z,45.83
2023-04-02T06:41:43.012Z,45.52
2023-04-02T06:47:08.452Z,45.31
2023-04-02T06:52:04.095Z,46.43
2023-04-02T06:56:57.760Z,45.57
2023-04-02T07:02:32.417Z,46.93
2023-04-02T07:07:27.400Z,47.54
2023-04-02T07:12:25.048Z,47.72
2023-04-02T07:17:23.768Z,47.88
2023-04-02T07:22:19.970Z,47.85
2023-04-02T07:27:18.893Z,48.51
2023-04-02T07:32:14.201Z,48.68
2023-04-02T07:37:07.773Z,48.33
2023-04-02T07:42:02.607Z,48.10
2023-04-02T07:46:55.990Z,48.37
2023-04-02T07:51:54.118Z,48.58
2023-04-02T07:56:47.770Z,48.95
2023-04-02T08:01:40.665Z,48.45
2023-04-02T08:06:33.787Z,48.49
2023-04-02T08:11:29.663Z,48.19
2023-04-02T08:16:26.328Z,48.32
2023-04-02T08:21:19.921Z,48.12
2023-04-02T08:26:18.568Z,48.58
2023-04-02T08:31:11.785Z,49.17
2023-04-02T08:36:07.097Z,49.88
2023-04-02T08:41:03.385Z,50.17
2023-04-02T08:46:12.848Z,50.09
2023-04-02T08:51:07.595Z,50.61
2023-04-02T08:56:20.029Z,51.50
2023-04-02T09:01:28.164Z,51.37
2023-04-02T09:06:22.688Z,51.29
2023-04-02T09:11:44.949Z,51.67
2023-04-02T09:16:41.711Z,52.27
2023-04-02T09:21:39.183Z,51.99
2023-04-02T09:26:33.999Z,53.01
2023-04-02T09:31:56.774Z,52.99
2023-04-02T09:36:50.769Z,53.27
2023-04-02T09:41:48.211Z,53.89
2023-04-02T09:46:57.080Z,55.55
2023-04-02T09:52:21.082Z,54.92
2023-04-02T09:57:27.514Z,53.69
2023-04-02T10:02:30.927Z,54.01
2023-04-02T10:07:46.554Z,54.02
2023-04-02T10:12:43.659Z,53.84
2023-04-02T10:17:38.748Z,51.60
2023-04-02T10:22:33.176Z,48.62
2023-04-02T10:27:39.857Z,54.17
2023-04-02T10:32:43.345Z,52.67
2023-04-02T10:37:59.799Z,53.73
2023-04-02T10:42:59.061Z,53.86
2023-04-02T10:48:23.206Z,54.78
2023-04-02T10:53:19.767Z,55.11
2023-04-02T10:58:23.088Z,56.35
2023-04-02T11:03:40.121Z,56.46
2023-04-02T11:08:46.151Z,57.24
2023-04-02T11:14:02.968Z,57.20
2023-04-02T11:19:15.203Z,55.49
2023-04-02T11:24:23.683Z,55.56
2023-04-02T11:29:32.110Z,56.94
2023-04-02T11:35:07.227Z,59.26
2023-04-02T11:40:04.129Z,57.36
2023-04-02T11:45:01.087Z,56.53
2023-04-02T11:50:02.389Z,56.66
2023-04-02T11:55:17.549Z,57.22
2023-04-02T12:00:33.409Z,56.55
2023-04-02T12:05:55.257Z,57.16
2023-04-02T12:11:01.702Z,56.93
2023-04-02T12:15:59.332Z,56.44
2023-04-02T12:20:57.974Z,56.50
2023-04-02T12:26:00.752Z,57.23
2023-04-02T12:31:09.607Z,56.67
2023-04-02T12:36:03.166Z,56.22
2023-04-02T12:41:02.374Z,56.54
2023-04-02T12:45:58.521Z,57.61
2023-04-02T12:50:52.384Z,57.78
2023-04-02T12:55:49.662Z,56.19
2023-04-02T13:00:42.879Z,55.80
2023-04-02T13:05:46.692Z,56.86
2023-04-02T13:10:39.829Z,55.50
2023-04-02T13:15:35.446Z,55.40
2023-04-02T13:20:39.995Z,54.88
2023-04-02T13:25:37.410Z,54.64
2023-04-02T13:30:32.270Z,55.37
2023-04-02T13:35:27.540Z,55.88
2023-04-02T13:40:19.979Z,55.53
2023-04-02T13:45:19.203Z,54.93
2023-04-02T13:50:18.259Z,54.62
2023-04-02T13:55:11.784Z,54.88
2023-04-02T14:00:07.202Z,55.17
2023-04-02T14:05:12.366Z,54.89
2023-04-02T14:10:07.607Z,55.42
2023-04-02T14:15:25.307Z,55.34
2023-04-02T14:20:21.080Z,55.96
2023-04-02T14:25:58.511Z,55.80
2023-04-02T14:31:07.566Z,56.59
2023-04-02T14:36:28.189Z,56.11
2023-04-02T14:41:53.583Z,56.31
2023-04-02T14:46:48.060Z,56.29
2023-04-02T14:51:52.226Z,56.48
2023-04-02T14:57:16.998Z,56.46
2023-04-02T15:02:15.285Z,56.37
2023-04-02T15:07:18.451Z,56.50
2023-04-02T15:12:27.477Z,56.04
2023-04-02T15:17:22.217Z,56.33
2023-04-02T15:22:30.912Z,56.58
2023-04-02T15:27:27.882Z,56.75
2023-04-02T15:32:33.154Z,56.88
2023-04-02T15:37:33.083Z,56.98
2023-04-02T15:42:31.480Z,56.84
2023-04-02T15:47:56.635Z,57.43
2023-04-02T15:52:58.252Z,56.51
2023-04-02T15:58:14.008Z,56.65
2023-04-02T16:03:17.576Z,56.40
2023-04-02T16:08:22.841Z,56.83
2023-04-02T16:13:20.104Z,56.08
2023-04-02T16:18:30.755Z,56.25
2023-04-02T16:23:33.039Z,56.80
2023-04-02T16:28:33.973Z,56.48
2023-04-02T16:34:06.725Z,56.79
2023-04-02T16:39:09.176Z,56.95
2023-04-02T16:44:24.694Z,56.71
2023-04-02T16:49:26.147Z,57.08
2023-04-02T16:54:40.441Z,57.02
2023-04-02T16:59:39.854Z,57.62
2023-04-02T17:04:46.963Z,57.77
2023-04-02T17:09:47.235Z,58.06
2023-04-02T17:14:53.095Z,58.55
2023-04-02T17:19:49.143Z,57.81
2023-04-02T17:24:46.600Z,59.06
2023-04-02T17:29:42.656Z,59.85
2023-04-02T17:34:36.646Z,60.36
2023-04-02T17:39:43.154Z,58.90
2023-04-02T17:44:45.346Z,52.83
2023-04-02T17:49:46.686Z,49.81
2023-04-02T17:55:13.300Z,49.43
2023-04-02T18:00:06.366Z,49.74
2023-04-02T18:05:13.679Z,52.36
2023-04-02T18:10:25.014Z,54.32
2023-04-02T18:16:03.322Z,54.21
2023-04-02T18:21:21.132Z,54.34
2023-04-02T18:26:42.331Z,54.52
2023-04-02T18:31:50.226Z,57.76
2023-04-02T18:37:13.538Z,55.87
2023-04-02T18:42:19.437Z,55.24
2023-04-02T18:47:15.217Z,55.24
2023-04-02T18:52:15.423Z,54.26
2023-04-02T18:57:22.712Z,54.38
2023-04-02T19:02:37.608Z,54.85
2023-04-02T19:07:34.141Z,55.17
2023-04-02T19:12:28.235Z,56.25
2023-04-02T19:17:47.461Z,56.45
2023-04-02T19:22:50.388Z,56.50
2023-04-02T19:28:12.957Z,56.51
2023-04-02T19:33:35.798Z,56.77
2023-04-02T19:39:03.287Z,56.66
2023-04-02T19:43:57.693Z,56.49
2023-04-02T19:49:01.348Z,56.08
2023-04-02T19:53:54.001Z,55.95
2023-04-02T19:58:47.088Z,55.44
2023-04-02T20:03:42.123Z,55.54
2023-04-02T20:08:36.624Z,55.60
2023-04-02T20:13:30.107Z,55.33
2023-04-02T20:18:24.990Z,55.51
2023-04-02T20:23:18.149Z,55.46
2023-04-02T20:28:11.405Z,55.66
2023-04-02T20:33:06.190Z,55.43
2023-04-02T20:38:00.233Z,55.69
2023-04-02T20:42:54.081Z,55.13
2023-04-02T20:47:51.876Z,55.21
2023-04-02T20:52:45.402Z,54.90
2023-04-02T20:57:38.783Z,54.96
2023-04-02T21:02:32.696Z,55.10
2023-04-02T21:07:26.836Z,55.26
2023-04-02T21:12:20.866Z,54.95
2023-04-02T21:17:14.644Z,55.02
2023-04-02T21:22:09.637Z,55.02
2023-04-02T21:27:04.014Z,54.95
2023-04-02T21:31:59.864Z,55.11
2023-04-02T21:36:54.760Z,54.88
2023-04-02T21:41:53.168Z,54.89
2023-04-02T21:46:46.147Z,54.80
2023-04-02T21:51:41.024Z,54.63
2023-04-02T21:56:38.234Z,54.70
2023-04-02T22:01:34.729Z,54.30
2023-04-02T22:06:33.306Z,55.09
2023-04-02T22:11:48.538Z,54.45
2023-04-02T22:16:42.825Z,54.43
2023-04-02T22:21:37.045Z,54.85
2023-04-02T22:26:32.196Z,54.47
2023-04-02T22:31:26.992Z,54.26
2023-04-02T22:36:21.317Z,54.06
2023-04-02T22:41:23.672Z,54.66
2023-04-02T22:46:19.062Z,54.40
2023-04-02T22:51:14.897Z,54.07
2023-04-02T22:56:07.609Z,54.12
2023-04-02T23:01:09.345Z,54.85
2023-04-02T23:06:08.033Z,54.04
2023-04-02T23:11:06.801Z,54.74
2023-04-02T23:16:06.634Z,55.17
2023-04-02T23:20:59.575Z,55.02
2023-04-02T23:25:51.620Z,55.02
2023-04-02T23:30:44.855Z,55.26
2023-04-02T23:35:39.034Z,54.55
2023-04-02T23:40:32.949Z,54.91
2023-04-02T23:45:27.215Z,55.07
2023-04-02T23:50:19.989Z,54.44
2023-04-02T23:55:13.875Z,54.29
